createdAt,value
2019-05-29T00:00:29.171Z,2.00
2019-05-29T00:03:00.316Z,2.25
2019-05-29T00:05:37.544Z,2.05
2019-05-29T00:08:14.796Z,2.05
2019-05-29T00:11:16.450Z,2.08
2019-05-29T00:17:06.379Z,1.85
2019-05-29T00:22:57.152Z,2.25
2019-05-29T00:40:12.844Z,1.77
2019-05-29T00:46:52.728Z,1.77
2019-05-29T00:49:55.088Z,1.70
2019-05-29T00:55:53.772Z,2.12
2019-05-29T01:05:12.024Z,2.30
2019-05-29T01:08:07.404Z,2.90
2019-05-29T01:11:43.822Z,2.20
2019-05-29T01:14:49.522Z,2.47
2019-05-29T01:17:12.166Z,3.00
2019-05-29T01:19:41.655Z,2.12
2019-05-29T01:22:12.262Z,2.35
2019-05-29T01:24:42.450Z,2.17
2019-05-29T01:27:12.606Z,2.42
2019-05-29T01:29:51.002Z,2.47
2019-05-29T01:32:21.625Z,2.30
2019-05-29T01:34:55.877Z,2.20
2019-05-29T01:37:26.898Z,2.45
2019-05-29T01:39:56.570Z,2.33
2019-05-29T01:42:31.161Z,2.15
2019-05-29T01:45:07.839Z,2.25
2019-05-29T01:48:04.621Z,2.15
2019-05-29T01:50:38.890Z,2.22
2019-05-29T01:53:08.500Z,2.62
2019-05-29T01:55:44.450Z,2.67
2019-05-29T01:58:21.974Z,2.00
2019-05-29T02:03:54.126Z,2.30
2019-05-29T02:06:27.910Z,2.42
2019-05-29T02:12:07.992Z,2.20
2019-05-29T02:14:39.656Z,2.33
2019-05-29T02:17:10.080Z,2.35
2019-05-29T02:20:41.889Z,1.80
2019-05-29T02:33:19.632Z,2.60
2019-05-29T02:36:03.236Z,2.90
2019-05-29T02:41:50.166Z,2.27
2019-05-29T02:44:36.979Z,3.15
2019-05-29T02:47:32.900Z,2.55
2019-05-29T02:50:15.409Z,2.37
2019-05-29T02:52:46.359Z,3.58
2019-05-29T02:55:16.063Z,3.10
2019-05-29T03:04:06.688Z,2.40
2019-05-29T03:04:14.342Z,2.22
2019-05-29T03:06:59.129Z,2.45
2019-05-29T03:09:41.023Z,2.90
2019-05-29T03:12:11.039Z,2.70
2019-05-29T03:15:27.356Z,2.83
2019-05-29T03:21:15.881Z,3.08
2019-05-29T03:24:01.486Z,2.35
2019-05-29T03:27:10.416Z,2.70
2019-05-29T03:30:20.680Z,2.72
2019-05-29T03:32:50.302Z,2.75
2019-05-29T03:35:23.171Z,2.95
2019-05-29T03:37:58.438Z,2.83
2019-05-29T03:40:26.590Z,2.95
2019-05-29T03:42:58.749Z,3.37
2019-05-29T03:45:31.205Z,2.60
2019-05-29T03:48:01.329Z,2.60
2019-05-29T03:50:33.301Z,2.42
2019-05-29T03:53:02.782Z,2.40
2019-05-29T03:55:33.735Z,3.17
2019-05-29T03:58:05.805Z,3.20
2019-05-29T04:00:44.988Z,2.90
2019-05-29T04:03:07.241Z,3.15
2019-05-29T04:05:37.949Z,2.83
2019-05-29T04:08:08.389Z,3.15
2019-05-29T04:10:39.806Z,3.40
2019-05-29T04:13:09.588Z,2.90
2019-05-29T04:15:41.025Z,2.72
2019-05-29T04:18:11.290Z,2.47
2019-05-29T04:20:41.101Z,2.90
2019-05-29T04:23:10.624Z,2.70
2019-05-29T04:25:43.018Z,3.17
2019-05-29T04:28:13.315Z,3.87
2019-05-29T04:30:43.492Z,2.80
2019-05-29T04:33:13.020Z,2.83
2019-05-29T04:35:42.466Z,2.65
2019-05-29T04:38:15.536Z,2.50
2019-05-29T04:40:45.359Z,3.45
2019-05-29T04:43:17.780Z,3.45
2019-05-29T04:45:48.091Z,3.10
2019-05-29T04:48:19.459Z,3.10
2019-05-29T04:50:49.481Z,2.92
2019-05-29T04:53:25.288Z,2.87
2019-05-29T04:55:50.630Z,3.37
2019-05-29T04:58:20.099Z,3.08
2019-05-29T05:00:58.537Z,3.87
2019-05-29T05:03:21.484Z,3.30
2019-05-29T05:05:51.184Z,3.35
2019-05-29T05:08:27.235Z,3.55
2019-05-29T05:10:57.243Z,4.22
2019-05-29T05:13:34.265Z,3.95
2019-05-29T05:16:05.384Z,3.05
2019-05-29T05:18:40.243Z,3.33
2019-05-29T05:21:12.150Z,3.58
2019-05-29T05:23:45.013Z,3.67
2019-05-29T05:29:25.613Z,3.47
2019-05-29T05:31:54.531Z,4.08
2019-05-29T05:34:23.403Z,4.62
2019-05-29T05:36:52.687Z,4.00
2019-05-29T05:39:21.820Z,4.30
2019-05-29T05:41:51.062Z,4.20
2019-05-29T05:44:19.904Z,4.33
2019-05-29T05:46:48.938Z,3.62
2019-05-29T05:49:18.011Z,4.50
2019-05-29T05:51:46.965Z,3.80
2019-05-29T05:54:15.918Z,3.50
2019-05-29T05:56:44.852Z,3.50
2019-05-29T05:59:14.251Z,4.22
2019-05-29T06:01:43.342Z,4.72
2019-05-29T06:04:12.268Z,3.20
2019-05-29T06:06:42.235Z,3.37
2019-05-29T06:09:11.730Z,3.30
2019-05-29T06:11:42.516Z,3.25
2019-05-29T06:14:11.758Z,3.60
2019-05-29T06:16:42.674Z,3.00
2019-05-29T06:19:11.951Z,3.12
2019-05-29T06:21:40.986Z,2.67
2019-05-29T06:24:10.207Z,2.72
2019-05-29T06:26:39.400Z,3.20
2019-05-29T06:29:08.626Z,3.35
2019-05-29T06:31:37.617Z,2.62
2019-05-29T06:34:07.777Z,2.65
2019-05-29T06:36:37.952Z,4.97
2019-05-29T06:39:07.882Z,2.58
2019-05-29T06:41:37.786Z,2.20
2019-05-29T06:44:06.945Z,2.30
2019-05-29T06:46:36.156Z,2.20
2019-05-29T06:49:05.294Z,2.00
2019-05-29T06:51:35.176Z,2.58
2019-05-29T06:54:04.341Z,1.90
2019-05-29T06:56:33.692Z,2.20
2019-05-29T06:59:02.668Z,2.57
2019-05-29T07:01:32.031Z,2.23
2019-05-29T07:04:11.534Z,1.83
2019-05-29T07:06:32.043Z,2.33
2019-05-29T07:09:01.154Z,1.90
2019-05-29T07:11:30.202Z,1.60
2019-05-29T07:13:59.076Z,2.07
2019-05-29T07:16:43.091Z,1.87
2019-05-29T07:21:29.446Z,1.30
2019-05-29T07:23:58.744Z,1.30
2019-05-29T07:26:27.794Z,1.50
2019-05-29T07:29:07.695Z,1.97
2019-05-29T07:31:27.411Z,1.87
2019-05-29T07:33:56.304Z,2.20
2019-05-29T07:36:25.320Z,2.53
2019-05-29T07:39:02.707Z,2.10
2019-05-29T07:41:24.983Z,2.13
2019-05-29T07:43:53.967Z,1.47
2019-05-29T07:46:23.020Z,1.37
2019-05-29T07:48:51.959Z,1.60
2019-05-29T07:51:20.923Z,1.83
2019-05-29T07:53:49.864Z,1.57
2019-05-29T07:56:22.720Z,1.80
2019-05-29T07:59:01.832Z,1.50
2019-05-29T08:01:20.239Z,1.63
2019-05-29T08:03:49.747Z,1.57
2019-05-29T08:06:18.977Z,1.53
2019-05-29T08:08:49.437Z,2.03
2019-05-29T08:11:18.531Z,1.40
2019-05-29T08:13:47.770Z,1.43
2019-05-29T08:16:16.854Z,1.53
2019-05-29T08:18:49.031Z,1.20
2019-05-29T08:21:16.506Z,1.37
2019-05-29T08:23:46.418Z,1.30
2019-05-29T08:26:15.514Z,1.20
2019-05-29T08:28:44.734Z,1.57
2019-05-29T08:31:13.954Z,1.80
2019-05-29T08:33:42.928Z,1.50
2019-05-29T08:36:11.985Z,1.93
2019-05-29T08:38:43.845Z,1.50
2019-05-29T08:41:11.745Z,1.10
2019-05-29T08:43:42.364Z,0.90
2019-05-29T08:46:11.672Z,1.40
2019-05-29T08:48:41.792Z,1.73
2019-05-29T08:51:10.810Z,1.20
2019-05-29T08:53:39.763Z,1.30
2019-05-29T08:56:08.952Z,1.20
2019-05-29T08:58:38.625Z,1.63
2019-05-29T09:01:08.068Z,1.50
2019-05-29T09:03:37.091Z,1.53
2019-05-29T09:06:09.098Z,1.83
2019-05-29T09:08:36.768Z,1.40
2019-05-29T09:11:05.615Z,1.17
2019-05-29T09:13:34.851Z,1.40
2019-05-29T09:16:03.925Z,2.07
2019-05-29T09:18:33.140Z,1.77
2019-05-29T09:21:03.969Z,1.60
2019-05-29T09:23:32.703Z,1.63
2019-05-29T09:26:14.256Z,1.50
2019-05-29T09:28:33.316Z,1.97
2019-05-29T09:31:02.366Z,1.90
2019-05-29T09:33:31.277Z,1.90
2019-05-29T09:36:00.255Z,1.60
2019-05-29T09:38:29.216Z,1.47
2019-05-29T09:40:58.188Z,2.60
2019-05-29T09:43:30.663Z,1.50
2019-05-29T09:45:57.724Z,1.63
2019-05-29T09:48:28.572Z,1.80
2019-05-29T09:50:57.390Z,2.30
2019-05-29T09:53:26.349Z,1.60
2019-05-29T09:55:56.167Z,1.67
2019-05-29T09:58:25.916Z,1.37
2019-05-29T10:01:15.829Z,1.37
2019-05-29T10:03:25.448Z,1.30
2019-05-29T10:05:55.771Z,1.63
2019-05-29T10:08:24.802Z,1.20
2019-05-29T10:11:02.697Z,1.47
2019-05-29T10:13:24.644Z,1.40
2019-05-29T10:15:54.006Z,1.30
2019-05-29T10:18:32.159Z,1.33
2019-05-29T10:20:56.499Z,1.33
2019-05-29T10:23:25.966Z,1.57
2019-05-29T10:25:56.474Z,1.90
2019-05-29T10:28:25.924Z,2.03
2019-05-29T10:30:54.999Z,1.53
2019-05-29T10:33:23.944Z,1.93
2019-05-29T10:35:55.279Z,1.83
2019-05-29T10:38:23.765Z,1.47
2019-05-29T10:41:05.326Z,1.60
2019-05-29T10:43:33.788Z,1.90
2019-05-29T10:45:54.284Z,1.53
2019-05-29T10:48:23.431Z,1.80
2019-05-29T10:50:53.766Z,2.53
2019-05-29T10:53:23.228Z,2.20
2019-05-29T10:55:52.706Z,3.03
2019-05-29T10:58:21.793Z,2.10
2019-05-29T11:00:51.252Z,2.40
2019-05-29T11:03:20.362Z,2.07
2019-05-29T11:05:49.623Z,1.67
2019-05-29T11:08:18.698Z,1.40
2019-05-29T11:10:47.888Z,1.97
2019-05-29T11:13:17.142Z,2.30
2019-05-29T11:15:46.486Z,3.43
2019-05-29T11:18:15.564Z,2.00
2019-05-29T11:20:44.462Z,2.80
2019-05-29T11:23:13.443Z,3.30
2019-05-29T11:25:43.098Z,2.70
2019-05-29T11:28:12.177Z,2.33
2019-05-29T11:30:41.135Z,2.23
2019-05-29T11:33:10.440Z,2.30
2019-05-29T11:35:56.837Z,2.27
2019-05-29T11:38:10.153Z,2.67
2019-05-29T11:40:39.146Z,2.90
2019-05-29T11:43:08.663Z,3.10
2019-05-29T11:45:37.810Z,2.17
2019-05-29T11:48:07.143Z,3.30
2019-05-29T11:50:36.524Z,2.00
2019-05-29T11:53:06.166Z,2.70
2019-05-29T11:55:35.133Z,2.00
2019-05-29T11:58:06.324Z,2.00
2019-05-29T12:00:35.586Z,1.80
2019-05-29T12:03:06.725Z,2.17
2019-05-29T12:05:35.788Z,1.83
2019-05-29T12:08:05.215Z,1.90
2019-05-29T12:10:34.160Z,2.30
2019-05-29T12:13:03.248Z,2.20
2019-05-29T12:15:32.593Z,2.00
2019-05-29T12:18:19.977Z,1.53
2019-05-29T12:20:32.441Z,1.60
2019-05-29T12:23:22.898Z,2.00
2019-05-29T12:25:32.644Z,1.70
2019-05-29T12:28:03.241Z,1.63
2019-05-29T12:30:34.357Z,2.07
2019-05-29T12:33:03.454Z,1.50
2019-05-29T12:35:32.316Z,1.30
2019-05-29T12:38:01.506Z,1.37
2019-05-29T12:40:30.714Z,1.30
2019-05-29T12:43:00.110Z,1.57
2019-05-29T12:45:29.486Z,1.83
2019-05-29T12:47:59.753Z,1.60
2019-05-29T12:50:33.621Z,1.20
2019-05-29T12:53:00.084Z,1.20
2019-05-29T12:55:29.102Z,1.47
2019-05-29T12:57:58.179Z,1.67
2019-05-29T13:00:27.707Z,2.03
2019-05-29T13:02:58.558Z,1.23
2019-05-29T13:05:27.788Z,1.33
2019-05-29T13:07:56.883Z,1.10
2019-05-29T13:10:30.807Z,1.20
2019-05-29T13:13:01.341Z,1.20
2019-05-29T13:15:27.896Z,1.67
2019-05-29T13:18:02.703Z,1.37
2019-05-29T13:20:27.900Z,1.20
2019-05-29T13:22:57.687Z,1.40
2019-05-29T13:25:27.058Z,1.33
2019-05-29T13:27:58.919Z,1.37
2019-05-29T13:30:27.627Z,1.73
2019-05-29T13:33:02.211Z,1.27
2019-05-29T13:35:27.497Z,1.30
2019-05-29T13:37:56.906Z,1.17
2019-05-29T13:40:25.991Z,1.63
2019-05-29T13:42:56.118Z,1.10
2019-05-29T13:45:25.721Z,1.13
2019-05-29T13:47:54.671Z,1.30
2019-05-29T13:50:23.867Z,1.30
2019-05-29T13:52:52.899Z,1.20
2019-05-29T13:55:22.040Z,1.07
2019-05-29T13:57:50.980Z,1.80
2019-05-29T14:00:35.620Z,1.37
2019-05-29T14:02:51.125Z,1.30
2019-05-29T14:05:20.537Z,1.27
2019-05-29T14:07:49.538Z,1.73
2019-05-29T14:10:18.665Z,1.30
2019-05-29T14:12:47.837Z,1.60
2019-05-29T14:15:17.144Z,1.50
2019-05-29T14:17:46.269Z,1.50
2019-05-29T14:20:16.180Z,1.70
2019-05-29T14:22:45.358Z,2.30
2019-05-29T14:25:15.084Z,1.60
2019-05-29T14:27:44.133Z,1.73
2019-05-29T14:30:16.075Z,1.50
2019-05-29T14:32:45.228Z,1.50
2019-05-29T14:35:14.922Z,1.47
2019-05-29T14:37:44.216Z,1.70
2019-05-29T14:40:13.480Z,1.03
2019-05-29T14:42:42.602Z,1.83
2019-05-29T14:45:12.493Z,1.43
2019-05-29T14:47:41.895Z,1.83
2019-05-29T14:50:13.362Z,2.17
2019-05-29T14:52:42.644Z,1.77
2019-05-29T14:55:16.066Z,1.43
2019-05-29T14:57:42.790Z,2.00
2019-05-29T15:00:24.115Z,1.20
2019-05-29T15:02:44.835Z,1.30
2019-05-29T15:05:15.153Z,1.90
2019-05-29T15:07:44.283Z,1.43
2019-05-29T15:10:26.145Z,1.70
2019-05-29T15:12:46.234Z,1.83
2019-05-29T15:15:16.549Z,1.60
2019-05-29T15:17:45.824Z,1.60
2019-05-29T15:20:16.916Z,1.63
2019-05-29T15:22:45.922Z,1.70
2019-05-29T15:25:23.471Z,1.90
2019-05-29T15:27:46.418Z,1.70
2019-05-29T15:30:20.786Z,1.60
2019-05-29T15:32:46.756Z,1.30
2019-05-29T15:35:19.657Z,1.50
2019-05-29T15:37:47.061Z,1.50
2019-05-29T15:40:17.167Z,1.70
2019-05-29T15:42:46.533Z,1.30
2019-05-29T15:45:16.106Z,1.47
2019-05-29T15:47:45.384Z,1.50
2019-05-29T15:50:16.091Z,1.40
2019-05-29T15:52:45.270Z,1.47
2019-05-29T15:55:28.471Z,1.50
2019-05-29T15:57:45.446Z,1.20
2019-05-29T16:00:15.620Z,1.83
2019-05-29T16:02:48.385Z,1.47
2019-05-29T16:05:17.478Z,2.27
2019-05-29T16:07:46.551Z,1.60
2019-05-29T16:10:18.547Z,1.60
2019-05-29T16:12:46.529Z,1.40
2019-05-29T16:15:17.383Z,1.63
2019-05-29T16:17:46.650Z,1.73
2019-05-29T16:20:16.483Z,1.77
2019-05-29T16:22:45.608Z,1.73
2019-05-29T16:25:16.987Z,1.60
2019-05-29T16:27:46.185Z,1.43
2019-05-29T16:30:17.893Z,1.50
2019-05-29T16:32:47.283Z,1.20
2019-05-29T16:35:17.360Z,1.40
2019-05-29T16:37:46.454Z,1.63
2019-05-29T16:40:16.489Z,1.50
2019-05-29T16:42:46.796Z,1.97
2019-05-29T16:45:18.545Z,1.63
2019-05-29T16:47:47.808Z,2.07
2019-05-29T16:50:17.917Z,1.60
2019-05-29T16:52:48.215Z,2.33
2019-05-29T16:55:18.928Z,1.97
2019-05-29T16:57:48.587Z,1.53
2019-05-29T17:00:21.514Z,2.20
2019-05-29T17:02:51.079Z,2.20
2019-05-29T17:05:20.692Z,2.23
2019-05-29T17:07:51.412Z,2.00
2019-05-29T17:10:25.149Z,1.50
2019-05-29T17:12:54.094Z,1.67
2019-05-29T17:15:23.228Z,1.73
2019-05-29T17:17:52.608Z,1.90
2019-05-29T17:20:37.948Z,1.53
2019-05-29T17:23:07.093Z,1.73
2019-05-29T17:25:36.406Z,1.60
2019-05-29T17:28:05.679Z,1.57
2019-05-29T17:30:35.402Z,1.40
2019-05-29T17:33:04.513Z,1.60
2019-05-29T17:35:33.498Z,1.90
2019-05-29T17:38:02.640Z,1.50
2019-05-29T17:40:31.720Z,1.70
2019-05-29T17:43:00.831Z,1.63
2019-05-29T17:45:30.105Z,1.47
2019-05-29T17:47:59.140Z,1.67
2019-05-29T17:50:28.211Z,1.47
2019-05-29T17:52:57.409Z,1.20
2019-05-29T17:55:26.527Z,1.60
2019-05-29T17:57:55.774Z,1.90
2019-05-29T18:00:26.533Z,2.30
2019-05-29T18:02:55.702Z,1.87
2019-05-29T18:05:26.593Z,2.00
2019-05-29T18:07:55.978Z,1.20
2019-05-29T18:10:25.722Z,1.57
2019-05-29T18:12:54.913Z,1.23
2019-05-29T18:15:23.980Z,2.30
2019-05-29T18:17:53.077Z,2.53
2019-05-29T18:20:23.670Z,2.73
2019-05-29T18:22:52.766Z,2.43
2019-05-29T18:25:22.081Z,2.80
2019-05-29T18:27:51.476Z,2.47
2019-05-29T18:30:22.178Z,3.37
2019-05-29T18:32:51.643Z,2.50
2019-05-29T18:35:22.780Z,2.40
2019-05-29T18:37:52.603Z,2.30
2019-05-29T18:40:24.323Z,2.00
2019-05-29T18:42:53.465Z,1.80
2019-05-29T18:45:24.598Z,1.90
2019-05-29T18:47:53.467Z,1.83
2019-05-29T18:50:23.464Z,2.07
2019-05-29T18:52:52.736Z,1.40
2019-05-29T18:55:22.800Z,1.33
2019-05-29T18:57:52.139Z,2.00
2019-05-29T19:00:23.329Z,1.50
2019-05-29T19:02:52.382Z,1.83
2019-05-29T19:05:24.009Z,1.73
2019-05-29T19:07:57.115Z,1.40
2019-05-29T19:10:33.154Z,1.47
2019-05-29T19:13:03.422Z,2.10
2019-05-29T19:15:33.038Z,2.10
2019-05-29T19:18:07.292Z,2.60
2019-05-29T19:21:03.407Z,4.80
2019-05-29T19:23:41.879Z,12.50
2019-05-29T19:26:12.376Z,21.43
2019-05-29T19:28:49.074Z,36.60
2019-05-29T19:31:19.268Z,20.70
2019-05-29T19:33:49.263Z,25.57
2019-05-29T19:36:19.233Z,21.80
2019-05-29T19:38:54.523Z,10.10
2019-05-29T19:41:24.152Z,16.10
2019-05-29T19:43:57.721Z,18.70
2019-05-29T19:46:28.450Z,21.20
2019-05-29T19:49:00.507Z,51.33
2019-05-29T19:51:31.298Z,38.03
2019-05-29T19:54:04.660Z,43.57
2019-05-29T19:56:35.877Z,73.30
2019-05-29T19:59:22.681Z,121.10
2019-05-29T20:01:57.299Z,70.93
2019-05-29T20:04:28.794Z,24.77
2019-05-29T20:07:03.202Z,17.13
2019-05-29T20:09:40.079Z,16.90
2019-05-29T20:12:11.171Z,12.80
2019-05-29T20:14:41.030Z,8.57
2019-05-29T20:17:13.345Z,4.87
2019-05-29T20:19:43.256Z,2.97
2019-05-29T20:22:15.146Z,2.80
2019-05-29T20:24:45.814Z,3.23
2019-05-29T20:27:27.450Z,1.73
2019-05-29T20:30:05.574Z,2.13
2019-05-29T20:32:36.678Z,2.77
2019-05-29T20:35:11.243Z,2.40
2019-05-29T20:37:46.506Z,2.27
2019-05-29T20:40:18.318Z,2.13
2019-05-29T20:42:47.761Z,3.00
2019-05-29T20:45:18.763Z,5.47
2019-05-29T20:47:48.701Z,9.23
2019-05-29T20:50:19.095Z,9.90
2019-05-29T20:52:48.908Z,5.43
2019-05-29T20:55:18.628Z,6.30
2019-05-29T20:57:48.415Z,3.57
2019-05-29T21:00:34.496Z,4.03
2019-05-29T21:03:04.784Z,6.57
2019-05-29T21:05:36.669Z,5.40
2019-05-29T21:08:06.838Z,4.90
2019-05-29T21:10:37.201Z,3.37
2019-05-29T21:13:08.644Z,3.30
2019-05-29T21:15:47.457Z,4.17
2019-05-29T21:18:17.350Z,4.73
2019-05-29T21:20:46.854Z,3.53
2019-05-29T21:23:17.088Z,2.60
2019-05-29T21:25:47.114Z,2.67
2019-05-29T21:28:17.129Z,2.33
2019-05-29T21:30:47.439Z,2.50
2019-05-29T21:33:19.519Z,4.93
2019-05-29T21:35:50.024Z,9.57
2019-05-29T21:38:19.832Z,13.87
2019-05-29T21:40:53.549Z,14.90
2019-05-29T21:43:31.227Z,13.47
2019-05-29T21:46:04.239Z,12.50
2019-05-29T21:48:33.948Z,11.73
2019-05-29T21:51:06.184Z,8.40
2019-05-29T21:53:35.325Z,6.70
2019-05-29T21:56:04.703Z,5.37
2019-05-29T21:58:34.508Z,5.53
2019-05-29T22:01:08.010Z,3.77
2019-05-29T22:03:38.310Z,4.70
2019-05-29T22:06:11.558Z,3.90
2019-05-29T22:08:47.795Z,3.33
2019-05-29T22:11:28.254Z,3.30
2019-05-29T22:14:02.572Z,2.47
2019-05-29T22:16:38.333Z,2.90
2019-05-29T22:19:11.718Z,2.60
2019-05-29T22:22:37.848Z,2.60
2019-05-29T22:25:07.672Z,2.70
2019-05-29T22:27:39.229Z,2.30
2019-05-29T22:30:12.456Z,2.63
2019-05-29T22:33:24.504Z,13.03
2019-05-29T22:35:55.667Z,2.67
2019-05-29T22:38:28.919Z,2.70
2019-05-29T22:41:01.901Z,2.77
2019-05-29T22:43:34.836Z,2.77
2019-05-29T22:46:06.821Z,1.90
2019-05-29T22:49:04.695Z,2.00
2019-05-29T22:51:33.779Z,2.20
2019-05-29T22:54:03.045Z,2.33
2019-05-29T22:56:32.340Z,2.30
2019-05-29T22:59:04.572Z,2.37
2019-05-29T23:01:49.717Z,2.37
2019-05-29T23:04:18.734Z,3.10
2019-05-29T23:07:26.119Z,2.17
2019-05-29T23:09:58.333Z,2.27
2019-05-29T23:15:20.760Z,2.67
2019-05-29T23:18:00.665Z,2.10
2019-05-29T23:20:35.663Z,3.03
2019-05-29T23:23:05.264Z,2.50
2019-05-29T23:25:42.230Z,2.60
2019-05-29T23:28:20.030Z,2.23
2019-05-29T23:30:50.317Z,2.33
2019-05-29T23:33:20.682Z,2.90
2019-05-29T23:35:50.558Z,2.83
2019-05-29T23:38:24.030Z,2.67
2019-05-29T23:40:59.524Z,2.37
2019-05-29T23:43:28.696Z,2.90
2019-05-29T23:45:57.639Z,2.90
2019-05-29T23:48:26.924Z,2.57
2019-05-29T23:50:57.499Z,3.07
2019-05-29T23:53:27.642Z,2.60
2019-05-29T23:55:57.823Z,2.70
2019-05-29T23:58:33.655Z,2.77
